sensor_id;sensor_type;location;lat;lon;timestamp;temperature;humidity
55008;DHT22;40902;45.116;21.296;2023-04-08T00:01:31;154.10;2252.80
55008;DHT22;40902;45.116;21.296;2023-04-08T00:03:57;154.10;2252.80
55008;DHT22;40902;45.116;21.296;2023-04-08T00:06:22;154.10;2252.80
55008;DHT22;40902;45.116;21.296;2023-04-08T00:08:48;154.10;2252.80
55008;DHT22;40902;45.116;21.296;2023-04-08T00:11:13;154.20;2252.80
55008;DHT22;40902;45.116;21.296;2023-04-08T00:13:39;154.10;2252.80
55008;DHT22;40902;45.116;21.296;2023-04-08T00:16:05;154.20;2252.80
55008;DHT22;40902;45.116;21.296;2023-04-08T00:18:32;154.20;2252.80
55008;DHT22;40902;45.116;21.296;2023-04-08T00:20:57;154.30;2252.80
55008;DHT22;40902;45.116;21.296;2023-04-08T00:23:23;154.30;2252.80
55008;DHT22;40902;45.116;21.296;2023-04-08T00:25:49;154.30;2252.80
55008;DHT22;40902;45.116;21.296;2023-04-08T00:28:15;154.30;2252.80
55008;DHT22;40902;45.116;21.296;2023-04-08T00:30:41;154.30;2252.80
55008;DHT22;40902;45.116;21.296;2023-04-08T00:33:06;154.30;2252.80
55008;DHT22;40902;45.116;21.296;2023-04-08T00:35:33;154.30;2252.80
55008;DHT22;40902;45.116;21.296;2023-04-08T00:37:58;154.30;2252.80
55008;DHT22;40902;45.116;21.296;2023-04-08T00:40:26;154.30;2252.80
55008;DHT22;40902;45.116;21.296;2023-04-08T00:42:51;154.30;2252.80
55008;DHT22;40902;45.116;21.296;2023-04-08T00:45:17;154.40;2252.80
55008;DHT22;40902;45.116;21.296;2023-04-08T00:47:43;154.40;2252.80
55008;DHT22;40902;45.116;21.296;2023-04-08T00:50:09;154.50;2252.80
55008;DHT22;40902;45.116;21.296;2023-04-08T00:52:37;154.50;2252.80
55008;DHT22;40902;45.116;21.296;2023-04-08T00:55:04;154.50;2252.80
55008;DHT22;40902;45.116;21.296;2023-04-08T00:57:29;154.50;2252.80
55008;DHT22;40902;45.116;21.296;2023-04-08T00:59:55;154.50;2252.80
55008;DHT22;40902;45.116;21.296;2023-04-08T01:02:30;154.50;2252.80
55008;DHT22;40902;45.116;21.296;2023-04-08T01:05:08;179.20;2252.80
55008;DHT22;40902;45.116;21.296;2023-04-08T01:07:43;179.20;2252.80
55008;DHT22;40902;45.116;21.296;2023-04-08T01:10:21;179.20;2252.80
55008;DHT22;40902;45.116;21.296;2023-04-08T01:12:51;179.20;2252.80
55008;DHT22;40902;45.116;21.296;2023-04-08T01:15:18;179.20;2252.80
55008;DHT22;40902;45.116;21.296;2023-04-08T01:17:44;179.20;2252.80
55008;DHT22;40902;45.116;21.296;2023-04-08T01:20:12;179.20;2252.80
55008;DHT22;40902;45.116;21.296;2023-04-08T01:25:32;179.30;2252.80
55008;DHT22;40902;45.116;21.296;2023-04-08T01:28:00;179.30;2252.80
55008;DHT22;40902;45.116;21.296;2023-04-08T01:30:27;179.30;2252.80
55008;DHT22;40902;45.116;21.296;2023-04-08T01:32:55;179.30;2252.80
55008;DHT22;40902;45.116;21.296;2023-04-08T01:35:23;179.40;2252.80
55008;DHT22;40902;45.116;21.296;2023-04-08T01:37:50;179.40;2252.80
55008;DHT22;40902;45.116;21.296;2023-04-08T01:40:18;179.40;2252.80
55008;DHT22;40902;45.116;21.296;2023-04-08T01:42:46;179.40;2252.80
55008;DHT22;40902;45.116;21.296;2023-04-08T01:45:13;179.40;2252.80
55008;DHT22;40902;45.116;21.296;2023-04-08T01:47:41;179.40;2252.80
55008;DHT22;40902;45.116;21.296;2023-04-08T01:50:09;179.40;2252.80
55008;DHT22;40902;45.116;21.296;2023-04-08T01:52:37;179.40;2252.80
55008;DHT22;40902;45.116;21.296;2023-04-08T01:55:04;179.40;2252.80
55008;DHT22;40902;45.116;21.296;2023-04-08T01:57:32;179.40;2252.80
55008;DHT22;40902;45.116;21.296;2023-04-08T02:00:02;179.40;2252.80
55008;DHT22;40902;45.116;21.296;2023-04-08T02:02:29;179.40;2252.80
55008;DHT22;40902;45.116;21.296;2023-04-08T02:04:57;179.40;2252.80
55008;DHT22;40902;45.116;21.296;2023-04-08T02:07:23;179.40;2252.80
55008;DHT22;40902;45.116;21.296;2023-04-08T02:09:49;179.40;2252.80
55008;DHT22;40902;45.116;21.296;2023-04-08T02:12:15;179.40;2252.80
55008;DHT22;40902;45.116;21.296;2023-04-08T02:14:41;179.40;2252.80
55008;DHT22;40902;45.116;21.296;2023-04-08T02:17:13;179.40;2252.80
55008;DHT22;40902;45.116;21.296;2023-04-08T02:20:10;179.50;2252.80
55008;DHT22;40902;45.116;21.296;2023-04-08T02:23:01;179.50;2252.80
55008;DHT22;40902;45.116;21.296;2023-04-08T02:25:29;179.50;2252.80
55008;DHT22;40902;45.116;21.296;2023-04-08T02:27:56;179.50;2252.80
55008;DHT22;40902;45.116;21.296;2023-04-08T02:30:25;179.50;2252.80
55008;DHT22;40902;45.116;21.296;2023-04-08T02:32:53;179.50;2252.80
55008;DHT22;40902;45.116;21.296;2023-04-08T02:35:19;179.50;2252.80
55008;DHT22;40902;45.116;21.296;2023-04-08T02:37:46;179.50;2252.80
55008;DHT22;40902;45.116;21.296;2023-04-08T02:40:24;179.50;2252.80
55008;DHT22;40902;45.116;21.296;2023-04-08T02:42:50;179.50;2252.80
55008;DHT22;40902;45.116;21.296;2023-04-08T02:45:16;179.50;2252.80
55008;DHT22;40902;45.116;21.296;2023-04-08T02:47:42;179.60;2252.80
55008;DHT22;40902;45.116;21.296;2023-04-08T02:50:09;179.60;2252.80
55008;DHT22;40902;45.116;21.296;2023-04-08T02:52:35;179.60;2252.80
55008;DHT22;40902;45.116;21.296;2023-04-08T02:55:00;179.60;2252.80
55008;DHT22;40902;45.116;21.296;2023-04-08T02:57:26;179.60;2252.80
55008;DHT22;40902;45.116;21.296;2023-04-08T02:59:52;179.60;2252.80
55008;DHT22;40902;45.116;21.296;2023-04-08T03:02:18;179.60;2252.80
55008;DHT22;40902;45.116;21.296;2023-04-08T03:04:43;179.60;2252.80
55008;DHT22;40902;45.116;21.296;2023-04-08T03:07:09;179.60;2252.80
55008;DHT22;40902;45.116;21.296;2023-04-08T03:09:35;179.70;2252.80
55008;DHT22;40902;45.116;21.296;2023-04-08T03:12:00;179.70;2252.80
55008;DHT22;40902;45.116;21.296;2023-04-08T03:14:26;179.70;2252.80
55008;DHT22;40902;45.116;21.296;2023-04-08T03:16:52;179.80;2252.80
55008;DHT22;40902;45.116;21.296;2023-04-08T03:19:18;179.70;2252.80
55008;DHT22;40902;45.116;21.296;2023-04-08T03:21:43;179.70;2252.80
55008;DHT22;40902;45.116;21.296;2023-04-08T03:24:09;179.80;2252.80
55008;DHT22;40902;45.116;21.296;2023-04-08T03:26:35;179.70;2252.80
55008;DHT22;40902;45.116;21.296;2023-04-08T03:29:01;179.70;2252.80
55008;DHT22;40902;45.116;21.296;2023-04-08T03:31:26;179.70;2252.80
55008;DHT22;40902;45.116;21.296;2023-04-08T03:33:52;179.70;2252.80
55008;DHT22;40902;45.116;21.296;2023-04-08T03:36:18;179.70;2252.80
55008;DHT22;40902;45.116;21.296;2023-04-08T03:38:44;179.80;2252.80
55008;DHT22;40902;45.116;21.296;2023-04-08T03:41:09;179.70;2252.80
55008;DHT22;40902;45.116;21.296;2023-04-08T03:43:35;179.80;2252.80
55008;DHT22;40902;45.116;21.296;2023-04-08T03:46:01;179.80;2252.80
55008;DHT22;40902;45.116;21.296;2023-04-08T03:48:27;179.80;2252.80
55008;DHT22;40902;45.116;21.296;2023-04-08T03:50:52;179.80;2252.80
55008;DHT22;40902;45.116;21.296;2023-04-08T03:53:18;179.80;2252.80
55008;DHT22;40902;45.116;21.296;2023-04-08T03:55:44;179.80;2252.80
55008;DHT22;40902;45.116;21.296;2023-04-08T03:58:10;179.80;2252.80
55008;DHT22;40902;45.116;21.296;2023-04-08T04:00:36;179.80;2252.80
55008;DHT22;40902;45.116;21.296;2023-04-08T04:03:01;179.80;2252.80
55008;DHT22;40902;45.116;21.296;2023-04-08T04:05:28;179.80;2252.80
55008;DHT22;40902;45.116;21.296;2023-04-08T04:07:54;179.80;2252.80
55008;DHT22;40902;45.116;21.296;2023-04-08T04:10:19;179.80;2252.80
55008;DHT22;40902;45.116;21.296;2023-04-08T04:12:45;179.80;2252.80
55008;DHT22;40902;45.116;21.296;2023-04-08T04:15:12;179.80;2252.80
55008;DHT22;40902;45.116;21.296;2023-04-08T04:17:37;179.80;2252.80
55008;DHT22;40902;45.116;21.296;2023-04-08T04:20:04;179.80;2252.80
55008;DHT22;40902;45.116;21.296;2023-04-08T04:22:31;179.80;2252.80
55008;DHT22;40902;45.116;21.296;2023-04-08T04:24:56;179.80;2252.80
55008;DHT22;40902;45.116;21.296;2023-04-08T04:27:22;179.80;2252.80
55008;DHT22;40902;45.116;21.296;2023-04-08T04:29:48;179.90;2252.80
55008;DHT22;40902;45.116;21.296;2023-04-08T04:32:13;179.90;2252.80
55008;DHT22;40902;45.116;21.296;2023-04-08T04:34:39;180.00;2252.80
55008;DHT22;40902;45.116;21.296;2023-04-08T04:37:05;180.10;2252.80
55008;DHT22;40902;45.116;21.296;2023-04-08T04:39:31;204.80;2252.80
55008;DHT22;40902;45.116;21.296;2023-04-08T04:41:56;204.80;2252.80
55008;DHT22;40902;45.116;21.296;2023-04-08T04:44:22;204.90;2252.80
55008;DHT22;40902;45.116;21.296;2023-04-08T04:46:48;205.00;2252.80
55008;DHT22;40902;45.116;21.296;2023-04-08T04:49:14;205.10;2252.80
55008;DHT22;40902;45.116;21.296;2023-04-08T04:51:39;205.20;2252.80
55008;DHT22;40902;45.116;21.296;2023-04-08T04:54:05;205.20;2252.80
55008;DHT22;40902;45.116;21.296;2023-04-08T04:56:31;205.20;2252.80
55008;DHT22;40902;45.116;21.296;2023-04-08T04:58:57;205.30;2252.80
55008;DHT22;40902;45.116;21.296;2023-04-08T05:01:22;205.30;2252.80
55008;DHT22;40902;45.116;21.296;2023-04-08T05:03:48;205.30;2252.80
55008;DHT22;40902;45.116;21.296;2023-04-08T05:06:14;205.30;2252.80
55008;DHT22;40902;45.116;21.296;2023-04-08T05:08:40;205.30;2252.80
55008;DHT22;40902;45.116;21.296;2023-04-08T05:11:09;205.40;2252.80
55008;DHT22;40902;45.116;21.296;2023-04-08T05:13:34;205.40;2252.80
55008;DHT22;40902;45.116;21.296;2023-04-08T05:16:00;205.40;2252.80
55008;DHT22;40902;45.116;21.296;2023-04-08T05:18:26;205.40;2252.80
55008;DHT22;40902;45.116;21.296;2023-04-08T05:20:52;205.40;2252.80
55008;DHT22;40902;45.116;21.296;2023-04-08T05:23:18;205.50;2252.80
55008;DHT22;40902;45.116;21.296;2023-04-08T05:25:43;205.40;2252.80
55008;DHT22;40902;45.116;21.296;2023-04-08T05:28:09;205.40;2252.80
55008;DHT22;40902;45.116;21.296;2023-04-08T05:30:35;205.40;2252.80
55008;DHT22;40902;45.116;21.296;2023-04-08T05:33:00;205.40;2252.80
55008;DHT22;40902;45.116;21.296;2023-04-08T05:35:27;205.40;2252.80
55008;DHT22;40902;45.116;21.296;2023-04-08T05:37:52;205.40;2252.80
55008;DHT22;40902;45.116;21.296;2023-04-08T05:40:18;205.40;2252.80
55008;DHT22;40902;45.116;21.296;2023-04-08T05:42:44;205.40;2252.80
55008;DHT22;40902;45.116;21.296;2023-04-08T05:45:10;205.40;2252.80
55008;DHT22;40902;45.116;21.296;2023-04-08T05:47:35;205.40;2252.80
55008;DHT22;40902;45.116;21.296;2023-04-08T05:50:01;205.40;2252.80
55008;DHT22;40902;45.116;21.296;2023-04-08T05:52:27;205.50;2252.80
55008;DHT22;40902;45.116;21.296;2023-04-08T05:54:52;205.40;2252.80
55008;DHT22;40902;45.116;21.296;2023-04-08T05:57:18;205.40;2252.80
55008;DHT22;40902;45.116;21.296;2023-04-08T05:59:44;205.40;2252.80
55008;DHT22;40902;45.116;21.296;2023-04-08T06:02:10;205.50;2252.80
55008;DHT22;40902;45.116;21.296;2023-04-08T06:04:35;205.50;2252.80
55008;DHT22;40902;45.116;21.296;2023-04-08T06:07:01;205.50;2252.80
55008;DHT22;40902;45.116;21.296;2023-04-08T06:09:28;205.60;2252.80
55008;DHT22;40902;45.116;21.296;2023-04-08T06:11:54;205.50;2252.80
55008;DHT22;40902;45.116;21.296;2023-04-08T06:14:21;205.60;2252.80
55008;DHT22;40902;45.116;21.296;2023-04-08T06:16:46;205.60;2252.80
55008;DHT22;40902;45.116;21.296;2023-04-08T06:19:12;205.70;2252.80
55008;DHT22;40902;45.116;21.296;2023-04-08T06:21:38;205.70;2252.80
55008;DHT22;40902;45.116;21.296;2023-04-08T06:24:03;205.70;2252.80
55008;DHT22;40902;45.116;21.296;2023-04-08T06:26:29;230.40;2252.80
55008;DHT22;40902;45.116;21.296;2023-04-08T06:28:55;230.40;2252.80
55008;DHT22;40902;45.116;21.296;2023-04-08T06:31:21;230.40;2252.80
55008;DHT22;40902;45.116;21.296;2023-04-08T06:33:47;230.40;2252.80
55008;DHT22;40902;45.116;21.296;2023-04-08T06:36:12;230.40;2252.80
55008;DHT22;40902;45.116;21.296;2023-04-08T06:38:38;230.50;2252.80
55008;DHT22;40902;45.116;21.296;2023-04-08T06:41:05;230.50;2252.80
55008;DHT22;40902;45.116;21.296;2023-04-08T06:43:31;230.50;2252.80
55008;DHT22;40902;45.116;21.296;2023-04-08T06:45:57;230.40;2252.80
55008;DHT22;40902;45.116;21.296;2023-04-08T06:48:24;230.40;2252.80
55008;DHT22;40902;45.116;21.296;2023-04-08T06:50:58;230.40;2252.80
55008;DHT22;40902;45.116;21.296;2023-04-08T06:53:24;230.40;2252.80
55008;DHT22;40902;45.116;21.296;2023-04-08T06:55:50;230.40;2252.80
55008;DHT22;40902;45.116;21.296;2023-04-08T06:58:16;230.40;2252.80
55008;DHT22;40902;45.116;21.296;2023-04-08T07:00:42;230.40;2252.80
55008;DHT22;40902;45.116;21.296;2023-04-08T07:03:08;230.40;2252.80
55008;DHT22;40902;45.116;21.296;2023-04-08T07:05:35;230.40;2252.80
55008;DHT22;40902;45.116;21.296;2023-04-08T07:08:01;230.40;2252.80
55008;DHT22;40902;45.116;21.296;2023-04-08T07:10:27;230.40;2252.80
55008;DHT22;40902;45.116;21.296;2023-04-08T07:12:53;230.50;2252.80
55008;DHT22;40902;45.116;21.296;2023-04-08T07:15:19;230.50;2252.80
55008;DHT22;40902;45.116;21.296;2023-04-08T07:17:45;230.50;2252.80
55008;DHT22;40902;45.116;21.296;2023-04-08T07:20:12;230.60;2252.80
55008;DHT22;40902;45.116;21.296;2023-04-08T07:22:38;230.60;2252.80
55008;DHT22;40902;45.116;21.296;2023-04-08T07:25:04;230.70;2252.80
55008;DHT22;40902;45.116;21.296;2023-04-08T07:27:30;230.70;2252.80
55008;DHT22;40902;45.116;21.296;2023-04-08T07:29:56;230.80;2252.80
55008;DHT22;40902;45.116;21.296;2023-04-08T07:32:22;231.00;2252.80
55008;DHT22;40902;45.116;21.296;2023-04-08T07:34:48;231.10;2252.80
55008;DHT22;40902;45.116;21.296;2023-04-08T07:37:14;231.20;2252.80
55008;DHT22;40902;45.116;21.296;2023-04-08T07:39:40;231.20;2252.80
55008;DHT22;40902;45.116;21.296;2023-04-08T07:42:05;231.20;2252.80
55008;DHT22;40902;45.116;21.296;2023-04-08T07:44:31;256.00;2252.80
55008;DHT22;40902;45.116;21.296;2023-04-08T07:46:57;256.00;2252.80
55008;DHT22;40902;45.116;21.296;2023-04-08T07:49:22;256.10;2252.80
55008;DHT22;40902;45.116;21.296;2023-04-08T07:51:48;256.10;2252.80
55008;DHT22;40902;45.116;21.296;2023-04-08T07:54:14;256.20;2252.80
55008;DHT22;40902;45.116;21.296;2023-04-08T07:56:42;256.10;2252.80
55008;DHT22;40902;45.116;21.296;2023-04-08T07:59:09;256.10;2252.80
55008;DHT22;40902;45.116;21.296;2023-04-08T08:01:35;256.20;2252.80
55008;DHT22;40902;45.116;21.296;2023-04-08T08:04:01;256.00;2252.80
55008;DHT22;40902;45.116;21.296;2023-04-08T08:06:28;256.10;2252.80
55008;DHT22;40902;45.116;21.296;2023-04-08T08:08:53;256.10;2252.80
55008;DHT22;40902;45.116;21.296;2023-04-08T08:11:19;256.20;2252.80
55008;DHT22;40902;45.116;21.296;2023-04-08T08:13:46;256.20;2252.80
55008;DHT22;40902;45.116;21.296;2023-04-08T08:16:12;256.20;2252.80
55008;DHT22;40902;45.116;21.296;2023-04-08T08:18:39;256.40;2252.80
55008;DHT22;40902;45.116;21.296;2023-04-08T08:21:05;256.40;2252.80
55008;DHT22;40902;45.116;21.296;2023-04-08T08:23:31;256.40;2252.80
55008;DHT22;40902;45.116;21.296;2023-04-08T08:26:05;256.40;2252.80
55008;DHT22;40902;45.116;21.296;2023-04-08T08:28:32;256.40;2252.80
55008;DHT22;40902;45.116;21.296;2023-04-08T08:30:58;256.40;2252.80
55008;DHT22;40902;45.116;21.296;2023-04-08T08:33:24;256.40;2252.80
55008;DHT22;40902;45.116;21.296;2023-04-08T08:35:50;256.40;2252.80
55008;DHT22;40902;45.116;21.296;2023-04-08T08:38:17;256.40;2252.80
55008;DHT22;40902;45.116;21.296;2023-04-08T08:40:43;256.40;2252.80
55008;DHT22;40902;45.116;21.296;2023-04-08T08:43:11;256.40;2252.80
55008;DHT22;40902;45.116;21.296;2023-04-08T08:45:41;256.30;2252.80
55008;DHT22;40902;45.116;21.296;2023-04-08T08:48:07;256.30;2252.80
55008;DHT22;40902;45.116;21.296;2023-04-08T08:50:34;256.30;2252.80
55008;DHT22;40902;45.116;21.296;2023-04-08T08:53:00;256.40;2252.80
55008;DHT22;40902;45.116;21.296;2023-04-08T08:55:30;256.50;2252.80
55008;DHT22;40902;45.116;21.296;2023-04-08T08:57:59;256.40;2252.80
55008;DHT22;40902;45.116;21.296;2023-04-08T09:00:35;256.40;2252.80
55008;DHT22;40902;45.116;21.296;2023-04-08T09:03:21;256.40;2252.80
55008;DHT22;40902;45.116;21.296;2023-04-08T09:10:53;256.40;2252.80
55008;DHT22;40902;45.116;21.296;2023-04-08T09:13:21;256.30;2252.80
55008;DHT22;40902;45.116;21.296;2023-04-08T09:16:02;256.40;2252.80
55008;DHT22;40902;45.116;21.296;2023-04-08T09:18:29;256.30;2252.80
55008;DHT22;40902;45.116;21.296;2023-04-08T09:20:55;256.40;2252.80
55008;DHT22;40902;45.116;21.296;2023-04-08T09:23:21;256.40;2252.80
55008;DHT22;40902;45.116;21.296;2023-04-08T09:25:46;256.50;2252.80
55008;DHT22;40902;45.116;21.296;2023-04-08T09:28:19;256.50;2252.80
55008;DHT22;40902;45.116;21.296;2023-04-08T09:30:48;256.60;2252.80
55008;DHT22;40902;45.116;21.296;2023-04-08T09:33:14;256.50;2252.80
55008;DHT22;40902;45.116;21.296;2023-04-08T09:35:41;256.50;2252.80
55008;DHT22;40902;45.116;21.296;2023-04-08T09:38:08;256.50;2252.80
55008;DHT22;40902;45.116;21.296;2023-04-08T09:40:34;256.50;2252.80
55008;DHT22;40902;45.116;21.296;2023-04-08T09:43:04;256.50;2252.80
55008;DHT22;40902;45.116;21.296;2023-04-08T09:45:33;256.60;2252.80
55008;DHT22;40902;45.116;21.296;2023-04-08T09:48:10;256.70;2252.80
55008;DHT22;40902;45.116;21.296;2023-04-08T09:50:46;256.90;2252.80
55008;DHT22;40902;45.116;21.296;2023-04-08T09:55:38;281.80;2278.40
55008;DHT22;40902;45.116;21.296;2023-04-08T09:58:11;282.10;2278.40
55008;DHT22;40902;45.116;21.296;2023-04-08T10:00:46;282.20;2278.40
55008;DHT22;40902;45.116;21.296;2023-04-08T10:03:51;282.40;2278.40
55008;DHT22;40902;45.116;21.296;2023-04-08T10:06:18;307.30;2304.00
55008;DHT22;40902;45.116;21.296;2023-04-08T10:08:46;307.50;2304.00
55008;DHT22;40902;45.116;21.296;2023-04-08T10:11:14;307.60;2304.00
55008;DHT22;40902;45.116;21.296;2023-04-08T10:13:40;307.70;2304.00
55008;DHT22;40902;45.116;21.296;2023-04-08T10:18:45;308.00;2304.00
55008;DHT22;40902;45.116;21.296;2023-04-08T10:21:33;308.10;2304.00
55008;DHT22;40902;45.116;21.296;2023-04-08T10:23:59;308.10;2304.00
55008;DHT22;40902;45.116;21.296;2023-04-08T10:26:41;308.10;2304.00
55008;DHT22;40902;45.116;21.296;2023-04-08T10:31:42;308.10;2304.00
55008;DHT22;40902;45.116;21.296;2023-04-08T10:34:18;308.10;2304.00
55008;DHT22;40902;45.116;21.296;2023-04-08T10:36:45;308.10;2304.00
55008;DHT22;40902;45.116;21.296;2023-04-08T10:39:12;308.10;2304.00
55008;DHT22;40902;45.116;21.296;2023-04-08T10:41:43;308.00;2304.00
55008;DHT22;40902;45.116;21.296;2023-04-08T10:44:19;308.10;2304.00
55008;DHT22;40902;45.116;21.296;2023-04-08T10:46:46;308.10;2304.00
55008;DHT22;40902;45.116;21.296;2023-04-08T10:49:12;308.10;2304.00
55008;DHT22;40902;45.116;21.296;2023-04-08T10:51:39;308.10;2304.00
55008;DHT22;40902;45.116;21.296;2023-04-08T10:54:13;308.00;2304.00
55008;DHT22;40902;45.116;21.296;2023-04-08T10:56:49;308.00;2304.00
55008;DHT22;40902;45.116;21.296;2023-04-08T10:59:17;308.10;2304.00
55008;DHT22;40902;45.116;21.296;2023-04-08T11:01:51;308.00;2304.00
55008;DHT22;40902;45.116;21.296;2023-04-08T11:04:17;307.90;2304.00
55008;DHT22;40902;45.116;21.296;2023-04-08T11:06:45;307.90;2304.00
55008;DHT22;40902;45.116;21.296;2023-04-08T11:09:12;307.90;2304.00
55008;DHT22;40902;45.116;21.296;2023-04-08T11:11:41;307.80;2304.00
55008;DHT22;40902;45.116;21.296;2023-04-08T11:14:07;307.80;2304.00
55008;DHT22;40902;45.116;21.296;2023-04-08T11:16:33;307.60;2304.00
55008;DHT22;40902;45.116;21.296;2023-04-08T11:19:04;307.50;2304.00
55008;DHT22;40902;45.116;21.296;2023-04-08T11:21:31;307.40;2304.00
55008;DHT22;40902;45.116;21.296;2023-04-08T11:23:59;307.40;2304.00
55008;DHT22;40902;45.116;21.296;2023-04-08T11:26:26;307.30;2304.00
55008;DHT22;40902;45.116;21.296;2023-04-08T11:28:54;307.30;2304.00
55008;DHT22;40902;45.116;21.296;2023-04-08T11:31:21;307.20;2304.00
55008;DHT22;40902;45.116;21.296;2023-04-08T11:33:52;307.20;2304.00
55008;DHT22;40902;45.116;21.296;2023-04-08T11:36:18;307.20;2304.00
55008;DHT22;40902;45.116;21.296;2023-04-08T11:38:46;307.30;2304.00
55008;DHT22;40902;45.116;21.296;2023-04-08T11:41:13;307.30;2304.00
55008;DHT22;40902;45.116;21.296;2023-04-08T11:43:44;307.40;2304.00
55008;DHT22;40902;45.116;21.296;2023-04-08T11:46:15;307.40;2304.00
55008;DHT22;40902;45.116;21.296;2023-04-08T11:48:56;307.40;2304.00
55008;DHT22;40902;45.116;21.296;2023-04-08T11:51:22;307.40;2304.00
55008;DHT22;40902;45.116;21.296;2023-04-08T11:53:48;307.40;2304.00
55008;DHT22;40902;45.116;21.296;2023-04-08T11:56:17;307.40;2304.00
55008;DHT22;40902;45.116;21.296;2023-04-08T11:58:43;307.40;2304.00
55008;DHT22;40902;45.116;21.296;2023-04-08T12:01:11;307.40;2304.00
55008;DHT22;40902;45.116;21.296;2023-04-08T12:03:36;307.30;2304.00
55008;DHT22;40902;45.116;21.296;2023-04-08T12:06:02;307.30;2304.00
55008;DHT22;40902;45.116;21.296;2023-04-08T12:08:30;307.30;2304.00
55008;DHT22;40902;45.116;21.296;2023-04-08T12:10:55;307.40;2304.00
55008;DHT22;40902;45.116;21.296;2023-04-08T12:13:21;307.40;2304.00
55008;DHT22;40902;45.116;21.296;2023-04-08T12:15:47;307.50;2304.00
55008;DHT22;40902;45.116;21.296;2023-04-08T12:18:13;307.50;2304.00
55008;DHT22;40902;45.116;21.296;2023-04-08T12:20:39;307.50;2304.00
55008;DHT22;40902;45.116;21.296;2023-04-08T12:23:04;307.60;2304.00
55008;DHT22;40902;45.116;21.296;2023-04-08T12:25:32;307.60;2304.00
55008;DHT22;40902;45.116;21.296;2023-04-08T12:27:58;307.70;2304.00
55008;DHT22;40902;45.116;21.296;2023-04-08T12:30:23;307.70;2304.00
55008;DHT22;40902;45.116;21.296;2023-04-08T12:32:49;307.80;2304.00
55008;DHT22;40902;45.116;21.296;2023-04-08T12:35:15;307.80;2304.00
55008;DHT22;40902;45.116;21.296;2023-04-08T12:37:41;307.90;2304.00
55008;DHT22;40902;45.116;21.296;2023-04-08T12:40:07;308.00;2304.00
55008;DHT22;40902;45.116;21.296;2023-04-08T12:42:33;308.00;2304.00
55008;DHT22;40902;45.116;21.296;2023-04-08T12:44:59;308.10;2304.00
55008;DHT22;40902;45.116;21.296;2023-04-08T12:47:25;332.80;2329.60
55008;DHT22;40902;45.116;21.296;2023-04-08T12:49:51;308.10;2304.00
55008;DHT22;40902;45.116;21.296;2023-04-08T12:52:16;332.80;2329.60
55008;DHT22;40902;45.116;21.296;2023-04-08T12:54:43;333.00;2329.60
55008;DHT22;40902;45.116;21.296;2023-04-08T12:57:09;333.00;2329.60
55008;DHT22;40902;45.116;21.296;2023-04-08T12:59:34;333.10;2329.60
55008;DHT22;40902;45.116;21.296;2023-04-08T13:02:02;333.10;2329.60
55008;DHT22;40902;45.116;21.296;2023-04-08T13:04:28;333.20;2329.60
55008;DHT22;40902;45.116;21.296;2023-04-08T13:06:53;333.20;2329.60
55008;DHT22;40902;45.116;21.296;2023-04-08T13:09:19;333.20;2329.60
55008;DHT22;40902;45.116;21.296;2023-04-08T13:11:45;333.10;2329.60
55008;DHT22;40902;45.116;21.296;2023-04-08T13:14:11;333.20;2329.60
55008;DHT22;40902;45.116;21.296;2023-04-08T13:16:38;333.10;2329.60
55008;DHT22;40902;45.116;21.296;2023-04-08T13:19:03;333.10;2329.60
55008;DHT22;40902;45.116;21.296;2023-04-08T13:21:29;333.10;2329.60
55008;DHT22;40902;45.116;21.296;2023-04-08T13:23:55;333.10;2329.60
55008;DHT22;40902;45.116;21.296;2023-04-08T13:26:21;333.00;2329.60
55008;DHT22;40902;45.116;21.296;2023-04-08T13:28:46;333.00;2329.60
55008;DHT22;40902;45.116;21.296;2023-04-08T13:31:12;332.90;2329.60
55008;DHT22;40902;45.116;21.296;2023-04-08T13:33:38;332.90;2329.60
55008;DHT22;40902;45.116;21.296;2023-04-08T13:36:04;332.80;2329.60
55008;DHT22;40902;45.116;21.296;2023-04-08T13:38:29;308.10;2304.00
55008;DHT22;40902;45.116;21.296;2023-04-08T13:40:55;308.10;2304.00
55008;DHT22;40902;45.116;21.296;2023-04-08T13:43:21;308.10;2304.00
55008;DHT22;40902;45.116;21.296;2023-04-08T13:45:47;308.00;2304.00
55008;DHT22;40902;45.116;21.296;2023-04-08T13:48:13;308.00;2304.00
55008;DHT22;40902;45.116;21.296;2023-04-08T13:50:38;308.00;2304.00
55008;DHT22;40902;45.116;21.296;2023-04-08T13:53:06;308.10;2304.00
55008;DHT22;40902;45.116;21.296;2023-04-08T13:55:31;308.00;2304.00
55008;DHT22;40902;45.116;21.296;2023-04-08T13:57:57;308.10;2304.00
55008;DHT22;40902;45.116;21.296;2023-04-08T14:00:23;308.10;2304.00
55008;DHT22;40902;45.116;21.296;2023-04-08T14:02:50;308.00;2304.00
55008;DHT22;40902;45.116;21.296;2023-04-08T14:05:16;307.90;2304.00
55008;DHT22;40902;45.116;21.296;2023-04-08T14:07:41;307.90;2304.00
55008;DHT22;40902;45.116;21.296;2023-04-08T14:10:07;307.90;2304.00
55008;DHT22;40902;45.116;21.296;2023-04-08T14:12:33;307.90;2304.00
55008;DHT22;40902;45.116;21.296;2023-04-08T14:14:59;308.00;2304.00
55008;DHT22;40902;45.116;21.296;2023-04-08T14:17:25;307.90;2304.00
55008;DHT22;40902;45.116;21.296;2023-04-08T14:19:50;307.90;2304.00
55008;DHT22;40902;45.116;21.296;2023-04-08T14:22:16;307.80;2304.00
55008;DHT22;40902;45.116;21.296;2023-04-08T14:24:43;307.80;2304.00
55008;DHT22;40902;45.116;21.296;2023-04-08T14:27:09;307.70;2304.00
55008;DHT22;40902;45.116;21.296;2023-04-08T14:29:35;307.70;2304.00
55008;DHT22;40902;45.116;21.296;2023-04-08T14:32:01;307.60;2304.00
55008;DHT22;40902;45.116;21.296;2023-04-08T14:34:26;307.60;2304.00
55008;DHT22;40902;45.116;21.296;2023-04-08T14:36:52;307.60;2304.00
55008;DHT22;40902;45.116;21.296;2023-04-08T14:39:17;307.60;2304.00
55008;DHT22;40902;45.116;21.296;2023-04-08T14:41:44;307.60;2304.00
55008;DHT22;40902;45.116;21.296;2023-04-08T14:44:12;307.60;2304.00
55008;DHT22;40902;45.116;21.296;2023-04-08T14:46:37;307.60;2304.00
55008;DHT22;40902;45.116;21.296;2023-04-08T14:49:04;307.50;2304.00
55008;DHT22;40902;45.116;21.296;2023-04-08T14:51:29;307.50;2304.00